Time;durP1;ratioP1;P1;durP2;ratioP2;P2;SDS_P1;SDS_P2;PMS_P1;PMS_P2;Temp;Humidity;BMP_temperature;BMP_pressure;BME280_temperature;BME280_humidity;BME280_pressure;Samples;Min_cycle;Max_cycle;Signal;HPM_P1;HPM_P2
2022/10/08 00:01:09;;;;;;;18.23;3.37;;;;;;;-145.18;100.00;46670.16;6213292;23;20008;-73
2022/10/08 00:03:39;;;;;;;17.27;3.10;;;;;;;-145.18;100.00;46662.34;6213034;23;20012;-72
2022/10/08 00:06:08;;;;;;;10.50;2.97;;;;;;;-145.18;100.00;46652.59;6212798;23;20008;-69
2022/10/08 00:08:36;;;;;;;9.57;2.27;;;;;;;-145.18;100.00;46652.59;6213329;23;20508;-71
2022/10/08 00:11:05;;;;;;;13.93;2.40;;;;;;;-145.18;100.00;46656.50;6212581;23;20315;-71
2022/10/08 00:13:39;;;;;;;10.47;2.80;;;;;;;-145.18;100.00;46648.69;6213289;23;20005;-71
2022/10/08 00:16:13;;;;;;;9.67;2.17;;;;;;;-145.18;100.00;46650.63;6212996;23;20005;-71
2022/10/08 00:18:40;;;;;;;11.37;2.17;;;;;;;-145.18;100.00;46648.69;6213343;23;20015;-71
2022/10/08 00:21:10;;;;;;;15.47;2.47;;;;;;;-145.18;100.00;46652.59;6212762;23;20005;-71
2022/10/08 00:23:35;;;;;;;8.13;2.20;;;;;;;-145.18;100.00;46683.84;6212785;23;20588;-71
2022/10/08 00:26:05;;;;;;;10.90;3.03;;;;;;;-145.18;100.00;46644.78;6213298;23;20004;-70
2022/10/08 00:28:32;;;;;;;13.33;2.30;;;;;;;-145.18;100.00;46646.72;6213444;23;19997;-72
2022/10/08 00:31:08;;;;;;;8.57;2.00;;;;;;;-145.18;100.00;46646.72;6212808;23;20083;-72
2022/10/08 00:33:35;;;;;;;12.18;2.00;;;;;;;-145.18;100.00;46683.84;6213442;23;20103;-72
2022/10/08 00:36:05;;;;;;;9.13;1.43;;;;;;;-145.18;100.00;46683.84;6212434;23;20460;-72
2022/10/08 00:38:31;;;;;;;7.33;1.53;;;;;;;-145.18;100.00;46642.81;6213155;23;20009;-72
2022/10/08 00:40:58;;;;;;;5.67;1.20;;;;;;;-145.18;100.00;46644.78;6212992;23;20035;-72
2022/10/08 00:43:50;;;;;;;5.57;1.30;;;;;;;-145.18;100.00;46648.69;6213024;23;20015;-72
2022/10/08 00:46:22;;;;;;;7.07;1.30;;;;;;;-145.18;100.00;46679.94;6212823;23;20008;-72
2022/10/08 00:48:51;;;;;;;6.63;1.30;;;;;;;-145.18;100.00;46642.81;6212847;23;20023;-72
2022/10/08 00:51:17;;;;;;;11.43;1.53;;;;;;;-145.18;100.00;46679.94;6212811;23;20008;-72
2022/10/08 00:53:43;;;;;;;7.17;1.40;;;;;;;-145.18;100.00;46644.78;6212816;23;20334;-73
2022/10/08 00:56:09;;;;;;;7.67;1.60;;;;;;;-145.18;100.00;46644.78;6212760;23;20016;-73
2022/10/08 00:58:36;;;;;;;4.03;1.40;;;;;;;-145.18;100.00;46660.41;6212600;23;20019;-72
2022/10/08 01:01:02;;;;;;;4.07;1.57;;;;;;;-145.18;100.00;46642.81;6212294;23;20005;-72
2022/10/08 01:03:27;;;;;;;5.17;1.80;;;;;;;-145.18;100.00;46642.81;6212419;23;20036;-71
2022/10/08 01:06:08;;;;;;;7.37;2.07;;;;;;;-145.18;100.00;46681.88;6213399;23;20351;-71
2022/10/08 01:08:36;;;;;;;8.40;1.93;;;;;;;-145.18;100.00;46681.88;6212642;23;20418;-71
2022/10/08 01:11:17;;;;;;;8.50;2.20;;;;;;;-145.18;100.00;46644.78;6212451;23;20032;-71
2022/10/08 01:13:48;;;;;;;12.80;2.90;;;;;;;-145.18;100.00;46646.72;6212916;23;20447;-71
2022/10/08 01:16:45;;;;;;;10.70;3.10;;;;;;;-145.18;100.00;46644.78;6212675;23;20036;-71
2022/10/08 01:19:38;;;;;;;13.97;4.27;;;;;;;-145.18;100.00;46644.78;6146177;23;20330;-70
2022/10/08 01:22:22;;;;;;;12.77;4.40;;;;;;;-145.18;100.00;46644.78;6212456;23;20054;-70
2022/10/08 01:27:44;;;;;;;12.70;3.83;;;;;;;-145.18;100.00;46679.94;6212207;23;20020;-70
2022/10/08 01:30:13;;;;;;;11.97;3.90;;;;;;;-145.18;100.00;46679.94;6212782;23;20035;-70
2022/10/08 01:33:11;;;;;;;14.70;3.37;;;;;;;-145.18;100.00;46677.97;6211969;23;20004;-70
2022/10/08 01:35:43;;;;;;;12.10;2.97;;;;;;;-145.18;100.00;46681.88;6212136;23;20429;-71
2022/10/08 01:38:12;;;;;;;11.50;2.83;;;;;;;-145.18;100.00;46660.41;6212773;23;20013;-71
2022/10/08 01:40:40;;;;;;;11.90;3.33;;;;;;;-145.18;100.00;46660.41;6212186;23;20079;-71
2022/10/08 01:43:09;;;;;;;8.23;2.50;;;;;;;-145.18;100.00;46646.72;6212405;23;20374;-71
2022/10/08 01:45:47;;;;;;;11.03;2.50;;;;;;;-145.18;100.00;46640.88;6212038;23;20505;-71
2022/10/08 01:48:18;;;;;;;8.40;2.77;;;;;;;-145.18;100.00;46642.81;6212246;23;20011;-72
2022/10/08 01:51:07;;;;;;;13.33;2.97;;;;;;;-145.18;100.00;46640.88;6212636;23;20333;-71
2022/10/08 01:53:38;;;;;;;9.30;3.03;;;;;;;-145.18;100.00;46677.97;6212016;23;20008;-71
2022/10/08 01:56:06;;;;;;;8.43;3.00;;;;;;;-145.18;100.00;46642.81;6212728;23;20096;-71
2022/10/08 01:59:02;;;;;;;11.47;3.70;;;;;;;-145.18;100.00;46677.97;6212036;23;20076;-71
2022/10/08 02:06:54;;;;;;;10.43;3.03;;;;;;;-145.18;100.00;46660.41;6211181;23;20071;-71
2022/10/08 02:09:21;;;;;;;11.37;3.47;;;;;;;-145.18;100.00;46644.78;6211962;23;20028;-71
2022/10/08 02:11:46;;;;;;;10.30;2.67;;;;;;;-145.18;100.00;46640.88;6212765;23;20728;-71
2022/10/08 02:14:11;;;;;;;8.53;2.50;;;;;;;-145.18;100.00;46660.41;6211589;23;20008;-71
2022/10/08 02:16:46;;;;;;;11.33;2.43;;;;;;;-145.18;100.00;46679.94;6212490;23;20009;-71
2022/10/08 02:19:26;;;;;;;6.70;2.20;;;;;;;-145.18;100.00;46644.78;6212184;23;20000;-71
2022/10/08 02:21:54;;;;;;;9.93;2.63;;;;;;;-145.18;100.00;46679.94;6212563;23;20084;-71
2022/10/08 02:24:35;;;;;;;9.27;2.40;;;;;;;-145.18;100.00;46642.81;6212405;23;20005;-71
2022/10/08 02:27:03;;;;;;;7.23;2.03;;;;;;;-145.18;100.00;46644.78;6211685;23;20640;-72
2022/10/08 02:29:47;;;;;;;7.20;2.27;;;;;;;-145.18;100.00;46642.81;6212164;23;20005;-71
2022/10/08 02:32:37;;;;;;;12.80;2.60;;;;;;;-145.18;100.00;46644.78;6211481;23;20008;-71
2022/10/08 02:35:12;;;;;;;11.90;3.30;;;;;;;-145.18;100.00;46679.94;6212452;23;20020;-71
2022/10/08 02:37:44;;;;;;;10.10;2.30;;;;;;;-145.18;100.00;46644.78;6212142;23;20001;-71
2022/10/08 02:40:12;;;;;;;10.73;2.87;;;;;;;-145.18;100.00;46648.69;6212300;23;20012;-71
2022/10/08 02:42:45;;;;;;;11.20;3.50;;;;;;;-145.18;100.00;46644.78;6211813;23;20433;-71
2022/10/08 02:45:19;;;;;;;9.37;2.83;;;;;;;-145.18;100.00;46644.78;6212210;23;20005;-72
2022/10/08 02:47:50;;;;;;;8.47;3.23;;;;;;;-145.18;100.00;46642.81;6212109;23;20001;-71
2022/10/08 02:50:21;;;;;;;6.77;2.80;;;;;;;-145.18;100.00;46644.78;6212537;23;20000;-72
2022/10/08 02:52:47;;;;;;;10.17;2.63;;;;;;;-145.18;100.00;46679.94;6212143;23;20039;-72
2022/10/08 02:55:48;;;;;;;8.70;3.37;;;;;;;-145.18;100.00;46642.81;6212302;23;20092;-71
2022/10/08 02:58:13;;;;;;;11.97;3.93;;;;;;;-145.18;100.00;46642.81;6211715;23;20120;-72
2022/10/08 03:00:53;;;;;;;10.63;3.10;;;;;;;-145.18;100.00;46642.81;6212414;23;20371;-72
2022/10/08 03:03:30;;;;;;;11.77;4.03;;;;;;;-145.18;100.00;46646.72;6211386;23;20009;-72
2022/10/08 03:05:56;;;;;;;11.10;3.70;;;;;;;-145.18;100.00;46677.97;6212181;23;20087;-72
2022/10/08 03:08:22;;;;;;;12.77;4.10;;;;;;;-145.18;100.00;46644.78;6211992;23;20038;-72
2022/10/08 03:10:48;;;;;;;10.70;3.90;;;;;;;-145.18;100.00;46642.81;6212363;23;20575;-72
2022/10/08 03:13:15;;;;;;;10.17;4.57;;;;;;;-145.18;100.00;46642.81;6211223;23;20496;-72
2022/10/08 03:15:41;;;;;;;9.27;4.10;;;;;;;-145.18;100.00;46640.88;6212625;23;20361;-72
2022/10/08 03:18:10;;;;;;;12.97;4.60;;;;;;;-145.18;100.00;46642.81;6213159;23;20087;-71
2022/10/08 03:20:44;;;;;;;18.17;5.47;;;;;;;-145.18;100.00;46677.97;6214092;23;20005;-72
2022/10/08 03:23:13;;;;;;;13.90;4.80;;;;;;;-145.18;100.00;46646.72;6213600;23;20001;-72
2022/10/08 03:25:38;;;;;;;13.90;4.67;;;;;;;-145.18;100.00;46660.41;6214527;23;20334;-72
2022/10/08 03:28:03;;;;;;;17.17;5.70;;;;;;;-145.18;100.00;46660.41;6212034;23;20005;-72
2022/10/08 03:30:29;;;;;;;11.33;4.90;;;;;;;-145.18;100.00;46660.41;6212687;23;20008;-72
2022/10/08 03:32:54;;;;;;;11.97;5.70;;;;;;;-145.18;100.00;46677.97;6212251;23;20497;-72
2022/10/08 03:35:19;;;;;;;11.43;5.50;;;;;;;-145.18;100.00;46640.88;6212539;23;20012;-72
2022/10/08 03:37:45;;;;;;;11.83;5.60;;;;;;;-145.18;100.00;46642.81;6209730;23;20013;-72
2022/10/08 03:40:10;;;;;;;14.13;5.67;;;;;;;-145.18;100.00;46677.97;6213338;23;20143;-72
2022/10/08 03:42:35;;;;;;;15.13;6.73;;;;;;;-145.18;100.00;46638.91;6210708;23;20028;-72
2022/10/08 03:45:01;;;;;;;19.07;6.30;;;;;;;-145.18;100.00;46640.88;6213427;23;20096;-72
2022/10/08 03:47:26;;;;;;;17.90;6.10;;;;;;;-145.18;100.00;46638.91;6212427;23;20019;-72
2022/10/08 03:49:51;;;;;;;15.37;5.97;;;;;;;-145.18;100.00;46640.88;6212312;23;20004;-72
2022/10/08 03:52:17;;;;;;;16.03;6.63;;;;;;;-145.18;100.00;46638.91;6236212;23;20009;-72
2022/10/08 03:54:42;;;;;;;21.13;7.03;;;;;;;-145.18;100.00;46677.97;6236768;23;20028;-72
2022/10/08 03:57:08;;;;;;;14.20;7.27;;;;;;;-145.18;100.00;46638.91;6212947;23;20023;-72
2022/10/08 03:59:33;;;;;;;15.33;6.93;;;;;;;-145.18;100.00;46677.97;6212793;23;20019;-72
2022/10/08 04:01:58;;;;;;;17.40;6.50;;;;;;;-145.18;100.00;46638.91;6213405;23;20299;-72
2022/10/08 04:04:23;;;;;;;14.77;7.63;;;;;;;-145.18;100.00;46676.03;6212863;23;20040;-72
2022/10/08 04:06:49;;;;;;;16.07;6.93;;;;;;;-145.18;100.00;46638.91;6213214;23;20001;-72
2022/10/08 04:09:14;;;;;;;18.33;6.97;;;;;;;-145.18;100.00;46638.91;6212743;23;20008;-72
2022/10/08 04:11:39;;;;;;;14.57;6.93;;;;;;;-145.18;100.00;46660.41;6213404;23;20438;-72
2022/10/08 04:14:05;;;;;;;17.03;7.77;;;;;;;-145.18;100.00;46660.41;6213084;23;20019;-72
2022/10/08 04:16:30;;;;;;;13.70;6.80;;;;;;;-145.18;100.00;46638.91;6213501;23;20091;-72
2022/10/08 04:18:56;;;;;;;18.47;7.57;;;;;;;-145.18;100.00;46638.91;6212808;23;20009;-72
2022/10/08 04:21:21;;;;;;;14.00;7.47;;;;;;;-145.18;100.00;46660.41;6213556;23;20382;-71
2022/10/08 04:23:50;;;;;;;13.57;6.67;;;;;;;-145.18;100.00;46660.41;6213123;23;20009;-71
2022/10/08 04:26:16;;;;;;;19.00;6.57;;;;;;;-145.18;100.00;46638.91;6212962;23;20004;-72
2022/10/08 04:28:43;;;;;;;15.80;6.90;;;;;;;-145.18;100.00;46640.88;6212404;23;20013;-72
2022/10/08 04:31:12;;;;;;;17.97;7.00;;;;;;;-145.18;100.00;46660.41;6212989;23;20035;-73
2022/10/08 04:33:37;;;;;;;17.00;6.37;;;;;;;-145.18;100.00;46676.03;6212720;23;20438;-73
2022/10/08 04:36:11;;;;;;;13.63;6.00;;;;;;;-145.18;100.00;46660.41;6213120;23;20009;-73
2022/10/08 04:38:37;;;;;;;15.53;6.40;;;;;;;-145.18;100.00;46676.03;6212955;23;20011;-73
2022/10/08 04:41:05;;;;;;;12.40;6.13;;;;;;;-145.18;100.00;46636.94;6213049;23;20075;-73
2022/10/08 04:43:31;;;;;;;19.37;6.13;;;;;;;-145.18;100.00;46676.03;6212699;23;20008;-73
2022/10/08 04:45:57;;;;;;;19.60;7.27;;;;;;;-145.18;100.00;46676.03;6213174;23;20448;-73
2022/10/08 04:48:22;;;;;;;16.23;6.60;;;;;;;-145.18;100.00;46660.41;6212562;23;20001;-73
2022/10/08 04:50:52;;;;;;;15.50;6.60;;;;;;;-145.18;100.00;46660.41;6213475;23;20012;-73
2022/10/08 04:53:18;;;;;;;29.80;7.63;;;;;;;-145.18;100.00;46660.41;6212836;23;20072;-73
2022/10/08 04:55:43;;;;;;;9.73;5.43;;;;;;;-145.18;100.00;46638.91;6213274;23;20013;-73
2022/10/08 04:58:08;;;;;;;13.57;5.27;;;;;;;-145.18;100.00;46636.94;6212533;23;20489;-73
2022/10/08 05:00:34;;;;;;;19.83;6.70;;;;;;;-145.18;100.00;46638.91;6213521;23;20005;-73
2022/10/08 05:03:00;;;;;;;15.10;5.20;;;;;;;-145.18;100.00;46638.91;6212112;23;20017;-74
2022/10/08 05:05:25;;;;;;;13.60;5.03;;;;;;;-145.18;100.00;46660.41;6213195;23;20008;-73
2022/10/08 05:07:52;;;;;;;15.23;4.80;;;;;;;-145.18;100.00;46636.94;6212892;23;20013;-73
2022/10/08 05:10:18;;;;;;;14.13;5.23;;;;;;;-145.18;100.00;46640.88;6212935;23;20573;-73
2022/10/08 05:12:43;;;;;;;11.83;4.70;;;;;;;-145.18;100.00;46640.88;6212733;23;20043;-73
2022/10/08 05:15:09;;;;;;;15.47;5.07;;;;;;;-145.18;100.00;46638.91;6213105;23;20009;-73
2022/10/08 05:17:34;;;;;;;16.60;5.17;;;;;;;-145.18;100.00;46640.88;6211295;23;20016;-73
2022/10/08 05:20:00;;;;;;;14.73;5.10;;;;;;;-145.18;100.00;46640.88;6213357;23;20032;-72
2022/10/08 05:22:25;;;;;;;15.80;4.50;;;;;;;-145.18;100.00;46636.94;6213107;23;20009;-74
2022/10/08 05:24:50;;;;;;;21.97;5.20;;;;;;;-145.18;100.00;46640.88;6212899;23;20104;-73
2022/10/08 05:27:16;;;;;;;11.73;3.53;;;;;;;-145.18;100.00;46660.41;6212966;23;20119;-73
2022/10/08 05:29:41;;;;;;;17.33;3.90;;;;;;;-145.18;100.00;46660.41;6213012;23;20020;-73
2022/10/08 05:32:06;;;;;;;11.03;3.27;;;;;;;-145.18;100.00;46640.88;6211389;23;20009;-73
2022/10/08 05:34:32;;;;;;;10.50;3.77;;;;;;;-145.18;100.00;46640.88;6212689;23;20016;-73
2022/10/08 05:36:57;;;;;;;15.13;3.23;;;;;;;-145.18;100.00;46640.88;6213349;23;20399;-73
2022/10/08 05:39:22;;;;;;;13.83;2.70;;;;;;;-145.18;100.00;46638.91;6212585;23;20318;-73
2022/10/08 05:41:48;;;;;;;14.20;2.83;;;;;;;-145.18;100.00;46650.63;6213150;23;20063;-73
2022/10/08 05:44:13;;;;;;;14.07;2.70;;;;;;;-145.18;100.00;46676.03;6212601;23;20329;-73
2022/10/08 05:46:39;;;;;;;10.33;2.63;;;;;;;-145.18;100.00;46644.78;6213436;23;20011;-73
2022/10/08 05:49:07;;;;;;;10.47;2.10;;;;;;;-145.18;100.00;46644.78;6209243;23;20004;-73
2022/10/08 05:51:33;;;;;;;12.53;2.90;;;;;;;-145.18;100.00;46642.81;6212984;23;19997;-73
2022/10/08 05:53:59;;;;;;;17.53;3.27;;;;;;;-145.18;100.00;46644.78;6211932;23;20028;-73
2022/10/08 05:56:26;;;;;;;8.87;2.37;;;;;;;-145.18;100.00;46640.88;6212784;23;20307;-73
2022/10/08 05:58:52;;;;;;;11.23;1.73;;;;;;;-145.18;100.00;46646.72;6211685;23;20238;-73
2022/10/08 06:01:21;;;;;;;7.60;1.67;;;;;;;-145.18;100.00;46642.81;6212925;23;20226;-73
2022/10/08 06:03:52;;;;;;;12.60;1.77;;;;;;;-145.18;100.00;46640.88;6212594;23;20234;-73
2022/10/08 06:06:18;;;;;;;14.33;1.60;;;;;;;-145.18;100.00;46650.63;6212511;23;20215;-73
2022/10/08 06:08:44;;;;;;;11.87;1.80;;;;;;;-145.18;100.00;46648.69;6212823;23;20232;-73
2022/10/08 06:11:10;;;;;;;13.13;1.80;;;;;;;-145.18;100.00;46650.63;6212795;23;20687;-73
2022/10/08 06:13:35;;;;;;;20.20;2.63;;;;;;;-145.18;100.00;46642.81;6212528;23;20234;-73
2022/10/08 06:16:06;;;;;;;12.27;2.03;;;;;;;-145.18;100.00;46646.72;6213079;23;20524;-73
2022/10/08 06:18:38;;;;;;;13.70;1.63;;;;;;;-145.18;100.00;46648.69;6209350;23;20062;-73
2022/10/08 06:21:08;;;;;;;12.63;2.37;;;;;;;-145.18;100.00;46646.72;6212462;23;20229;-73
2022/10/08 06:23:34;;;;;;;12.23;2.20;;;;;;;-145.18;100.00;46644.78;6212033;23;20245;-73
2022/10/08 06:26:07;;;;;;;12.20;2.17;;;;;;;-145.18;100.00;46646.72;6212500;23;20234;-73
2022/10/08 06:28:34;;;;;;;10.13;1.60;;;;;;;-145.18;100.00;46650.63;6211786;23;20513;-73
2022/10/08 06:30:59;;;;;;;9.17;1.83;;;;;;;-145.18;100.00;46642.81;6212519;23;20695;-73
2022/10/08 06:33:25;;;;;;;9.97;1.80;;;;;;;-145.18;100.00;46648.69;6211511;23;20004;-74
2022/10/08 06:35:51;;;;;;;11.60;1.70;;;;;;;-145.18;100.00;46650.63;6212614;23;20047;-73
2022/10/08 06:38:17;;;;;;;11.83;1.83;;;;;;;-145.18;100.00;46642.81;6210223;23;20326;-73
2022/10/08 06:40:42;;;;;;;8.07;1.50;;;;;;;-145.18;100.00;46648.69;6236855;23;20013;-73
2022/10/08 06:43:14;;;;;;;9.03;1.57;;;;;;;-145.18;100.00;46650.63;6211828;23;20476;-73
2022/10/08 06:45:40;;;;;;;11.63;2.27;;;;;;;-145.18;100.00;46648.69;6210692;23;20083;-73
2022/10/08 06:48:06;;;;;;;9.93;1.83;;;;;;;-145.18;100.00;46650.63;6211812;23;20001;-73
2022/10/08 06:50:32;;;;;;;14.23;1.47;;;;;;;-145.18;100.00;46654.53;6211922;23;20008;-73
2022/10/08 06:52:57;;;;;;;13.20;1.37;;;;;;;-145.18;100.00;46652.59;6213582;23;20059;-73
2022/10/08 06:55:23;;;;;;;11.40;1.70;;;;;;;-145.18;100.00;46654.53;6237679;23;20422;-73
2022/10/08 06:57:48;;;;;;;11.17;1.47;;;;;;;-145.18;100.00;46652.59;6213631;23;20015;-73
2022/10/08 07:00:14;;;;;;;7.77;1.60;;;;;;;-145.18;100.00;46652.59;6235944;23;20009;-73
2022/10/08 07:02:39;;;;;;;14.37;2.07;;;;;;;-145.18;100.00;46650.63;6214077;23;20023;-73
2022/10/08 07:05:05;;;;;;;13.40;1.60;;;;;;;-145.18;100.00;46658.44;6213078;23;20430;-73
2022/10/08 07:07:30;;;;;;;12.73;1.90;;;;;;;-145.18;100.00;46654.53;6213340;23;20452;-73
2022/10/08 07:09:56;;;;;;;6.10;1.20;;;;;;;-145.18;100.00;46652.59;6213797;23;20005;-73
2022/10/08 07:12:21;;;;;;;10.13;1.50;;;;;;;-145.18;100.00;46658.44;6214111;23;20017;-73
2022/10/08 07:14:46;;;;;;;11.20;1.80;;;;;;;-145.18;100.00;46658.44;6212699;23;20013;-73
2022/10/08 07:17:12;;;;;;;8.00;1.77;;;;;;;-145.18;100.00;46656.50;6213706;23;20016;-73
2022/10/08 07:19:37;;;;;;;11.33;1.73;;;;;;;-145.18;100.00;46658.44;6212734;23;20043;-73
2022/10/08 07:22:03;;;;;;;11.20;1.70;;;;;;;-145.18;100.00;46658.44;6236913;23;19997;-73
2022/10/08 07:24:28;;;;;;;8.10;1.60;;;;;;;-145.18;100.00;46662.34;6213670;23;20124;-73
2022/10/08 07:26:53;;;;;;;7.93;2.50;;;;;;;-145.18;100.00;46660.41;6213972;23;20019;-73
2022/10/08 07:29:19;;;;;;;14.07;1.70;;;;;;;-145.18;100.00;46658.44;6212900;23;20504;-73
2022/10/08 07:31:44;;;;;;;13.57;2.20;;;;;;;-145.18;100.00;46668.22;6214899;23;20012;-73
2022/10/08 07:34:11;;;;;;;9.97;1.50;;;;;;;-145.18;100.00;46668.22;6213216;23;20025;-73
2022/10/08 07:36:38;;;;;;;9.33;1.90;;;;;;;-145.18;100.00;46662.34;6214246;23;20012;-73
2022/10/08 07:39:07;;;;;;;14.30;2.67;;;;;;;-145.18;100.00;46672.13;6213498;23;20009;-73
2022/10/08 07:41:33;;;;;;;8.83;1.93;;;;;;;-145.18;100.00;46664.31;6213797;23;20008;-73
2022/10/08 07:44:00;;;;;;;10.17;2.20;;;;;;;-145.18;100.00;46668.22;6213796;23;20012;-73
2022/10/08 07:46:27;;;;;;;14.53;2.17;;;;;;;-145.18;100.00;46672.13;6214377;23;20387;-72
2022/10/08 07:48:57;;;;;;;10.60;2.20;;;;;;;-145.18;100.00;46672.13;6213607;23;20426;-73
2022/10/08 07:51:23;;;;;;;11.83;1.97;;;;;;;-145.18;100.00;46672.13;6213537;23;20043;-73
2022/10/08 07:53:49;;;;;;;8.43;1.57;;;;;;;-145.18;100.00;46672.13;6211603;23;20091;-73
2022/10/08 07:56:17;;;;;;;11.50;1.63;;;;;;;-145.18;100.00;46676.03;6237522;23;20043;-73
2022/10/08 07:58:43;;;;;;;12.20;1.23;;;;;;;-145.18;100.00;46672.13;6213581;23;20011;-73
2022/10/08 08:01:16;;;;;;;10.30;1.50;;;;;;;-145.18;100.00;46679.94;6213422;23;20087;-73
2022/10/08 08:03:42;;;;;;;7.30;1.17;;;;;;;-145.18;100.00;46676.03;6213454;23;20020;-73
2022/10/08 08:06:15;;;;;;;17.83;1.20;;;;;;;-145.18;100.00;46676.03;6213570;23;20067;-73
2022/10/08 08:08:43;;;;;;;6.77;1.33;;;;;;;-145.18;100.00;46679.94;6212752;23;20028;-73
2022/10/08 08:11:11;;;;;;;8.20;1.20;;;;;;;-145.18;100.00;46676.03;6213919;23;20066;-73
2022/10/08 08:13:39;;;;;;;10.60;1.87;;;;;;;-145.18;100.00;46674.06;6211674;23;20422;-73
2022/10/08 08:16:11;;;;;;;8.97;1.50;;;;;;;-145.18;100.00;46676.03;6213363;23;20015;-73
2022/10/08 08:18:39;;;;;;;5.77;1.40;;;;;;;-145.18;100.00;46668.22;6213257;23;20000;-73
2022/10/08 08:21:08;;;;;;;7.97;1.47;;;;;;;-145.18;100.00;46668.22;6212963;23;20008;-73
2022/10/08 08:23:39;;;;;;;12.40;2.00;;;;;;;-145.18;100.00;46662.34;6212366;23;20012;-73
2022/10/08 08:26:14;;;;;;;8.57;1.40;;;;;;;-145.18;100.00;46646.72;6213145;23;20446;-73
2022/10/08 08:28:40;;;;;;;6.60;0.90;;;;;;;-145.18;100.00;46625.22;6212810;23;20008;-74
2022/10/08 08:31:14;;;;;;;5.00;1.23;;;;;;;-145.18;100.00;46595.94;6212965;23;20001;-74
2022/10/08 08:33:41;;;;;;;9.37;1.43;;;;;;;-145.18;100.00;46578.34;6213028;23;20005;-73
2022/10/08 08:36:07;;;;;;;8.57;1.53;;;;;;;-145.18;100.00;46566.63;6208637;23;20017;-73
2022/10/08 08:38:36;;;;;;;8.40;1.10;;;;;;;-145.18;100.00;46558.81;6211989;23;20030;-73
2022/10/08 08:41:48;;;;;;;5.50;1.60;;;;;;;-145.18;100.00;46549.06;6213055;23;20071;-74
2022/10/08 08:44:28;;;;;;;12.23;1.50;;;;;;;-145.18;100.00;46556.88;6210727;23;20338;-74
2022/10/08 08:47:01;;;;;;;11.47;1.63;;;;;;;-145.18;100.00;46547.09;6212755;23;20106;-74
2022/10/08 08:49:30;;;;;;;9.63;1.50;;;;;;;-145.18;100.00;46558.81;6212863;23;20082;-73
2022/10/08 08:51:58;;;;;;;9.23;1.60;;;;;;;-145.18;100.00;46558.81;6213549;23;20078;-73
2022/10/08 08:54:23;;;;;;;10.93;1.67;;;;;;;-145.18;100.00;46562.72;6212450;23;20079;-74
2022/10/08 08:56:50;;;;;;;6.43;1.67;;;;;;;-145.18;100.00;46568.59;6212625;23;20036;-74
2022/10/08 08:59:48;;;;;;;9.53;1.00;;;;;;;-145.18;100.00;46586.16;6213031;23;20434;-74
2022/10/08 09:02:27;;;;;;;21.50;1.70;;;;;;;-145.18;100.00;46590.06;6194641;23;20012;-74
2022/10/08 09:04:59;;;;;;;8.17;1.20;;;;;;;-145.18;100.00;46593.97;6212782;23;20023;-74
2022/10/08 09:07:28;;;;;;;9.90;1.27;;;;;;;-145.18;100.00;46590.06;6213100;23;20000;-74
2022/10/08 09:09:57;;;;;;;6.53;1.50;;;;;;;-145.18;100.00;46580.31;6212600;23;20019;-74
2022/10/08 09:12:43;;;;;;;8.17;1.30;;;;;;;-145.18;100.00;46593.97;6213058;23;20063;-74
2022/10/08 09:15:25;;;;;;;6.60;1.33;;;;;;;-145.18;100.00;46601.78;6211489;23;20012;-74
2022/10/08 09:17:51;;;;;;;13.97;1.50;;;;;;;-145.18;100.00;46597.88;6212676;23;20012;-73
2022/10/08 09:20:20;;;;;;;8.83;1.10;;;;;;;-145.18;100.00;46595.94;6211755;23;20337;-74
2022/10/08 09:22:48;;;;;;;7.80;1.17;;;;;;;-145.18;100.00;46601.78;6212753;23;20091;-74
2022/10/08 09:25:16;;;;;;;8.90;2.43;;;;;;;-145.18;100.00;46617.41;6211933;23;20016;-73
2022/10/08 09:27:54;;;;;;;6.70;1.20;;;;;;;-145.18;100.00;46615.47;6212579;23;20024;-73
2022/10/08 09:30:23;;;;;;;8.70;1.20;;;;;;;-145.18;100.00;46631.09;6212166;23;20005;-74
2022/10/08 09:32:49;;;;;;;6.80;1.77;;;;;;;-145.18;100.00;46642.81;6212312;23;20051;-74
2022/10/08 09:35:15;;;;;;;7.10;1.40;;;;;;;-145.18;100.00;46644.78;6211426;23;20015;-73
2022/10/08 09:37:44;;;;;;;11.07;2.27;;;;;;;-145.18;100.00;46642.81;6212134;23;20342;-73
2022/10/08 09:40:22;;;;;;;8.20;1.03;;;;;;;-145.18;100.00;46650.63;6211818;23;20690;-73
2022/10/08 09:43:17;;;;;;;9.43;1.23;;;;;;;-145.18;100.00;46644.78;6212169;23;20009;-73
2022/10/08 09:45:43;;;;;;;14.07;2.77;;;;;;;-145.18;100.00;46636.94;6205837;23;20031;-73
2022/10/08 09:48:15;;;;;;;3.83;0.80;;;;;;;-145.18;100.00;46621.31;6212525;23;20024;-73
2022/10/08 09:51:17;;;;;;;5.40;1.10;;;;;;;-145.18;100.00;46625.22;6211140;23;20004;-73
2022/10/08 09:53:52;;;;;;;13.80;1.40;;;;;;;-145.18;100.00;46627.19;6212106;23;20113;-73
2022/10/08 09:56:26;;;;;;;9.02;1.70;;;;;;;-145.18;100.00;46636.94;6211636;23;20001;-73
2022/10/08 09:58:55;;;;;;;11.20;1.10;;;;;;;-145.18;100.00;46652.59;6211303;23;20004;-73
2022/10/08 10:01:23;;;;;;;2.87;1.00;;;;;;;-145.18;100.00;46658.44;6207391;23;20330;-73
2022/10/08 10:03:52;;;;;;;9.10;1.33;;;;;;;-145.18;100.00;46695.56;6211569;23;20040;-73
2022/10/08 10:06:25;;;;;;;6.90;2.03;;;;;;;-145.18;100.00;46722.91;6212138;23;19997;-73
2022/10/08 10:08:58;;;;;;;7.77;1.07;;;;;;;-145.18;100.00;46719.00;6211749;23;20036;-73
2022/10/08 10:11:29;;;;;;;9.23;1.80;;;;;;;-145.18;100.00;46730.72;6212120;23;20032;-73
2022/10/08 10:13:57;;;;;;;8.13;1.23;;;;;;;-145.18;100.00;46715.09;6212032;23;20016;-73
2022/10/08 10:16:34;;;;;;;8.40;1.20;;;;;;;-145.18;100.00;46750.25;6212129;23;20074;-73
2022/10/08 10:19:03;;;;;;;5.70;0.77;;;;;;;-145.18;100.00;46756.09;6211644;23;20000;-73
2022/10/08 10:21:55;;;;;;;7.70;1.10;;;;;;;-145.18;100.00;46746.34;6212298;23;20080;-73
2022/10/08 10:24:48;;;;;;;8.00;1.20;;;;;;;-145.18;100.00;46781.50;6179367;23;20055;-73
2022/10/08 10:27:46;;;;;;;4.80;1.63;;;;;;;-145.18;100.00;46814.72;6214111;23;20013;-73
2022/10/08 10:30:17;;;;;;;7.60;1.07;;;;;;;-145.18;100.00;46836.19;6211907;23;20139;-73
2022/10/08 10:32:53;;;;;;;4.30;0.80;;;;;;;-145.18;100.00;46758.06;6214230;23;20003;-73
2022/10/08 10:35:28;;;;;;;12.67;1.20;;;;;;;-145.18;100.00;46803.00;6213100;23;20007;-73
2022/10/08 10:38:10;;;;;;;4.18;1.23;;;;;;;-145.18;100.00;46953.41;6214068;23;20157;-73
2022/10/08 10:40:46;;;;;;;5.67;0.63;;;;;;;-145.18;100.00;47418.38;6213763;23;20074;-73
2022/10/08 10:43:19;;;;;;;11.27;1.53;;;;;;;-145.18;100.00;47369.53;6213917;23;20059;-73
2022/10/08 10:45:55;;;;;;;13.37;1.00;;;;;;;-145.18;100.00;47000.28;6213973;23;20070;-73
2022/10/08 10:48:21;;;;;;;7.77;1.13;;;;;;;-145.18;100.00;47047.19;6214203;23;20080;-73
2022/10/08 10:51:21;;;;;;;7.43;1.00;;;;;;;-145.18;100.00;46892.84;6213880;23;20393;-73
2022/10/08 10:53:55;;;;;;;7.33;1.30;;;;;;;-145.18;100.00;47137.03;6213460;23;20005;-73
2022/10/08 10:56:22;;;;;;;2.93;0.80;;;;;;;-145.18;100.00;47418.38;6212042;23;20016;-73
2022/10/08 10:59:38;;;;;;;1.20;0.50;;;;;;;-145.18;100.00;47385.16;6213685;23;20350;-73
2022/10/08 11:02:28;;;;;;;5.77;1.30;;;;;;;-145.18;100.00;47398.81;6150202;23;20006;-73
2022/10/08 11:05:10;;;;;;;6.80;0.87;;;;;;;-145.18;100.00;47379.28;6150785;23;20009;-72
2022/10/08 11:08:06;;;;;;;7.10;0.93;;;;;;;-145.18;100.00;47369.53;6202615;23;20015;-72
2022/10/08 11:10:52;;;;;;;4.47;1.40;;;;;;;-145.18;100.00;47375.38;6213186;23;20012;-72
2022/10/08 11:13:27;;;;;;;4.15;0.95;;;;;;;-145.18;100.00;47316.78;6214147;23;20011;-73
2022/10/08 11:15:52;;;;;;;3.63;0.90;;;;;;;-145.18;100.00;47369.53;6213038;23;20446;-73
2022/10/08 11:18:33;;;;;;;7.17;1.17;;;;;;;-145.18;100.00;47361.72;6213581;23;20014;-73
2022/10/08 11:21:37;;;;;;;6.33;1.30;;;;;;;-145.18;100.00;47324.59;6213671;23;20015;-74
2022/10/08 11:24:23;;;;;;;2.60;0.73;;;;;;;-145.18;100.00;47307.00;6213657;23;20008;-74
2022/10/08 11:26:55;;;;;;;6.40;1.07;;;;;;;-145.18;100.00;47308.97;6213133;23;20008;-73
2022/10/08 11:29:32;;;;;;;9.00;1.60;;;;;;;-145.18;100.00;47293.31;6212989;23;20000;-73